sensor_id;sensor_type;location;lat;lon;timestamp;pressure;altitude;pressure_sealevel;temperature;humidity
38225;BME280;24025;48.138;11.428;2024-03-08T00:01:46;95365.97;;;1.75;89.44
38225;BME280;24025;48.138;11.428;2024-03-08T00:04:18;95368.78;;;1.61;89.81
38225;BME280;24025;48.138;11.428;2024-03-08T00:06:49;95362.41;;;1.53;90.75
38225;BME280;24025;48.138;11.428;2024-03-08T00:09:22;95370.00;;;1.55;88.93
38225;BME280;24025;48.138;11.428;2024-03-08T00:11:53;95369.06;;;1.42;89.72
38225;BME280;24025;48.138;11.428;2024-03-08T00:14:25;95372.47;;;1.42;90.19
38225;BME280;24025;48.138;11.428;2024-03-08T00:16:57;95365.66;;;1.50;89.49
38225;BME280;24025;48.138;11.428;2024-03-08T00:19:29;95361.34;;;1.46;89.62
38225;BME280;24025;48.138;11.428;2024-03-08T00:22:00;95356.69;;;1.42;89.25
38225;BME280;24025;48.138;11.428;2024-03-08T00:24:32;95351.72;;;1.41;89.14
38225;BME280;24025;48.138;11.428;2024-03-08T00:27:04;95353.13;;;1.47;89.16
38225;BME280;24025;48.138;11.428;2024-03-08T00:29:36;95350.81;;;1.46;89.25
38225;BME280;24025;48.138;11.428;2024-03-08T00:32:10;95352.81;;;1.49;88.62
38225;BME280;24025;48.138;11.428;2024-03-08T00:34:42;95346.63;;;1.19;88.23
38225;BME280;24025;48.138;11.428;2024-03-08T00:37:14;95352.94;;;1.18;89.74
38225;BME280;24025;48.138;11.428;2024-03-08T00:39:46;95341.50;;;1.13;88.94
38225;BME280;24025;48.138;11.428;2024-03-08T00:42:21;95336.56;;;1.21;89.46
38225;BME280;24025;48.138;11.428;2024-03-08T00:44:52;95337.22;;;1.35;89.05
38225;BME280;24025;48.138;11.428;2024-03-08T00:47:24;95334.72;;;1.21;89.50
38225;BME280;24025;48.138;11.428;2024-03-08T00:49:56;95331.78;;;1.31;89.12
38225;BME280;24025;48.138;11.428;2024-03-08T00:52:28;95333.34;;;1.24;89.66
38225;BME280;24025;48.138;11.428;2024-03-08T00:54:59;95329.94;;;1.32;89.41
38225;BME280;24025;48.138;11.428;2024-03-08T00:57:31;95323.13;;;1.22;88.87
38225;BME280;24025;48.138;11.428;2024-03-08T01:00:04;95330.72;;;1.24;90.02
38225;BME280;24025;48.138;11.428;2024-03-08T01:02:39;95323.28;;;1.17;89.96
38225;BME280;24025;48.138;11.428;2024-03-08T01:05:11;95325.16;;;1.17;90.10
38225;BME280;24025;48.138;11.428;2024-03-08T01:07:42;95322.03;;;1.23;89.49
38225;BME280;24025;48.138;11.428;2024-03-08T01:10:14;95316.94;;;1.09;90.54
38225;BME280;24025;48.138;11.428;2024-03-08T01:12:45;95315.09;;;1.10;89.83
38225;BME280;24025;48.138;11.428;2024-03-08T01:15:17;95309.41;;;1.17;90.52
38225;BME280;24025;48.138;11.428;2024-03-08T01:17:49;95303.03;;;1.09;89.83
38225;BME280;24025;48.138;11.428;2024-03-08T01:20:21;95303.06;;;1.18;91.16
38225;BME280;24025;48.138;11.428;2024-03-08T01:22:53;95296.72;;;1.10;90.32
38225;BME280;24025;48.138;11.428;2024-03-08T01:25:24;95290.22;;;0.99;91.13
38225;BME280;24025;48.138;11.428;2024-03-08T01:27:56;95290.22;;;1.07;90.30
38225;BME280;24025;48.138;11.428;2024-03-08T01:30:27;95280.03;;;1.14;90.51
38225;BME280;24025;48.138;11.428;2024-03-08T01:33:00;95275.41;;;1.11;89.78
38225;BME280;24025;48.138;11.428;2024-03-08T01:35:31;95280.03;;;1.14;90.44
38225;BME280;24025;48.138;11.428;2024-03-08T01:38:03;95280.31;;;1.04;90.23
38225;BME280;24025;48.138;11.428;2024-03-08T01:40:36;95273.53;;;0.95;91.37
38225;BME280;24025;48.138;11.428;2024-03-08T01:43:21;95274.47;;;0.90;91.11
38225;BME280;24025;48.138;11.428;2024-03-08T01:45:54;95276.91;;;0.87;90.62
38225;BME280;24025;48.138;11.428;2024-03-08T01:48:30;95268.53;;;0.76;92.25
38225;BME280;24025;48.138;11.428;2024-03-08T01:51:02;95266.25;;;0.83;92.12
38225;BME280;24025;48.138;11.428;2024-03-08T01:53:34;95264.25;;;0.89;91.29
38225;BME280;24025;48.138;11.428;2024-03-08T01:56:07;95259.16;;;0.92;92.05
38225;BME280;24025;48.138;11.428;2024-03-08T01:58:41;95257.91;;;0.72;92.59
38225;BME280;24025;48.138;11.428;2024-03-08T02:01:15;95259.13;;;0.75;91.94
38225;BME280;24025;48.138;11.428;2024-03-08T02:03:47;95254.69;;;0.84;91.80
38225;BME280;24025;48.138;11.428;2024-03-08T02:06:18;95243.69;;;0.73;92.23
38225;BME280;24025;48.138;11.428;2024-03-08T02:08:51;95241.25;;;0.85;91.98
38225;BME280;24025;48.138;11.428;2024-03-08T02:11:23;95250.50;;;0.83;92.31
38225;BME280;24025;48.138;11.428;2024-03-08T02:13:54;95246.16;;;0.78;91.98
38225;BME280;24025;48.138;11.428;2024-03-08T02:16:27;95239.06;;;0.79;92.22
38225;BME280;24025;48.138;11.428;2024-03-08T02:18:59;95242.19;;;0.81;92.61
38225;BME280;24025;48.138;11.428;2024-03-08T02:21:30;95234.59;;;0.79;92.13
38225;BME280;24025;48.138;11.428;2024-03-08T02:24:03;95233.66;;;0.75;92.15
38225;BME280;24025;48.138;11.428;2024-03-08T02:26:35;95236.31;;;0.84;92.51
38225;BME280;24025;48.138;11.428;2024-03-08T02:29:07;95236.44;;;0.79;93.05
38225;BME280;24025;48.138;11.428;2024-03-08T02:31:38;95225.34;;;0.82;92.23
38225;BME280;24025;48.138;11.428;2024-03-08T02:34:10;95230.75;;;0.85;92.71
38225;BME280;24025;48.138;11.428;2024-03-08T02:36:42;95234.44;;;0.84;92.81
38225;BME280;24025;48.138;11.428;2024-03-08T02:39:13;95231.50;;;0.86;92.32
38225;BME280;24025;48.138;11.428;2024-03-08T02:41:45;95229.97;;;0.85;92.49
38225;BME280;24025;48.138;11.428;2024-03-08T02:44:18;95222.38;;;0.66;93.41
38225;BME280;24025;48.138;11.428;2024-03-08T02:46:49;95218.22;;;0.65;94.16
38225;BME280;24025;48.138;11.428;2024-03-08T02:49:22;95219.78;;;0.75;92.78
38225;BME280;24025;48.138;11.428;2024-03-08T02:51:53;95216.50;;;0.61;94.67
38225;BME280;24025;48.138;11.428;2024-03-08T02:54:25;95214.97;;;0.60;93.52
38225;BME280;24025;48.138;11.428;2024-03-08T02:56:56;95215.13;;;0.54;93.61
38225;BME280;24025;48.138;11.428;2024-03-08T02:59:28;95218.66;;;0.59;93.92
38225;BME280;24025;48.138;11.428;2024-03-08T03:02:00;95217.59;;;0.60;94.48
38225;BME280;24025;48.138;11.428;2024-03-08T03:04:32;95209.13;;;0.63;94.54
38225;BME280;24025;48.138;11.428;2024-03-08T03:07:06;95208.19;;;0.67;94.47
38225;BME280;24025;48.138;11.428;2024-03-08T03:09:37;95208.34;;;0.53;93.83
38225;BME280;24025;48.138;11.428;2024-03-08T03:12:09;95208.16;;;0.59;95.03
38225;BME280;24025;48.138;11.428;2024-03-08T03:14:41;95206.31;;;0.50;95.31
38225;BME280;24025;48.138;11.428;2024-03-08T03:17:12;95201.97;;;0.46;95.23
38225;BME280;24025;48.138;11.428;2024-03-08T03:19:44;95202.28;;;0.53;95.15
38225;BME280;24025;48.138;11.428;2024-03-08T03:22:16;95200.47;;;0.53;94.77
38225;BME280;24025;48.138;11.428;2024-03-08T03:24:47;95201.06;;;0.59;94.63
38225;BME280;24025;48.138;11.428;2024-03-08T03:27:20;95198.13;;;0.61;94.18
38225;BME280;24025;48.138;11.428;2024-03-08T03:29:51;95201.69;;;0.47;95.11
38225;BME280;24025;48.138;11.428;2024-03-08T03:32:23;95204.13;;;0.44;95.89
38225;BME280;24025;48.138;11.428;2024-03-08T03:34:55;95194.59;;;0.56;95.95
38225;BME280;24025;48.138;11.428;2024-03-08T03:37:26;95194.28;;;0.49;94.67
38225;BME280;24025;48.138;11.428;2024-03-08T03:39:58;95190.06;;;0.31;95.12
38225;BME280;24025;48.138;11.428;2024-03-08T03:42:30;95189.47;;;0.43;95.83
38225;BME280;24025;48.138;11.428;2024-03-08T03:45:01;95191.94;;;0.39;95.93
38225;BME280;24025;48.138;11.428;2024-03-08T03:47:34;95182.84;;;0.45;95.66
38225;BME280;24025;48.138;11.428;2024-03-08T03:50:06;95188.38;;;0.35;95.59
38225;BME280;24025;48.138;11.428;2024-03-08T03:52:38;95194.88;;;0.46;96.12
38225;BME280;24025;48.138;11.428;2024-03-08T03:55:09;95189.31;;;0.39;95.67
38225;BME280;24025;48.138;11.428;2024-03-08T03:57:43;95181.94;;;0.50;95.25
38225;BME280;24025;48.138;11.428;2024-03-08T04:00:17;95189.44;;;0.34;95.46
38225;BME280;24025;48.138;11.428;2024-03-08T04:02:48;95185.06;;;0.12;96.76
38225;BME280;24025;48.138;11.428;2024-03-08T04:05:20;95185.28;;;0.33;95.51
38225;BME280;24025;48.138;11.428;2024-03-08T04:07:52;95176.91;;;0.14;96.36
38225;BME280;24025;48.138;11.428;2024-03-08T04:10:24;95179.97;;;0.07;97.59
38225;BME280;24025;48.138;11.428;2024-03-08T04:12:55;95180.28;;;0.06;97.84
38225;BME280;24025;48.138;11.428;2024-03-08T04:15:28;95179.81;;;0.04;98.86
38225;BME280;24025;48.138;11.428;2024-03-08T04:17:59;95177.03;;;0.09;99.44
38225;BME280;24025;48.138;11.428;2024-03-08T04:20:32;95177.66;;;0.06;99.23
38225;BME280;24025;48.138;11.428;2024-03-08T04:23:03;95172.84;;;-0.01;99.88
38225;BME280;24025;48.138;11.428;2024-03-08T04:25:35;95174.41;;;0.09;99.15
38225;BME280;24025;48.138;11.428;2024-03-08T04:28:07;95173.50;;;0.13;99.02
38225;BME280;24025;48.138;11.428;2024-03-08T04:30:39;95174.91;;;0.11;99.56
38225;BME280;24025;48.138;11.428;2024-03-08T04:33:10;95174.91;;;0.11;98.36
38225;BME280;24025;48.138;11.428;2024-03-08T04:35:42;95177.56;;;0.19;98.57
38225;BME280;24025;48.138;11.428;2024-03-08T04:38:17;95172.31;;;0.19;98.21
38225;BME280;24025;48.138;11.428;2024-03-08T04:40:49;95179.72;;;0.26;97.78
38225;BME280;24025;48.138;11.428;2024-03-08T04:43:21;95172.03;;;0.30;97.98
38225;BME280;24025;48.138;11.428;2024-03-08T04:45:53;95176.81;;;0.27;97.45
38225;BME280;24025;48.138;11.428;2024-03-08T04:48:25;95174.78;;;0.24;97.51
38225;BME280;24025;48.138;11.428;2024-03-08T04:50:58;95173.41;;;0.27;96.95
38225;BME280;24025;48.138;11.428;2024-03-08T04:53:30;95170.50;;;0.37;97.46
38225;BME280;24025;48.138;11.428;2024-03-08T04:56:03;95172.19;;;0.42;96.97
38225;BME280;24025;48.138;11.428;2024-03-08T04:58:38;95161.69;;;0.42;97.04
38225;BME280;24025;48.138;11.428;2024-03-08T05:01:09;95167.88;;;0.37;96.90
38225;BME280;24025;48.138;11.428;2024-03-08T05:03:42;95167.09;;;0.28;97.41
38225;BME280;24025;48.138;11.428;2024-03-08T05:06:14;95159.69;;;0.30;97.44
38225;BME280;24025;48.138;11.428;2024-03-08T05:08:45;95161.25;;;0.40;97.10
38225;BME280;24025;48.138;11.428;2024-03-08T05:11:18;95155.81;;;0.19;97.93
38225;BME280;24025;48.138;11.428;2024-03-08T05:13:49;95163.38;;;0.29;97.48
38225;BME280;24025;48.138;11.428;2024-03-08T05:16:21;95163.06;;;0.22;98.38
38225;BME280;24025;48.138;11.428;2024-03-08T05:18:55;95157.81;;;0.22;97.52
38225;BME280;24025;48.138;11.428;2024-03-08T05:21:28;95162.31;;;0.30;97.30
38225;BME280;24025;48.138;11.428;2024-03-08T05:24:00;95163.53;;;0.33;97.23
38225;BME280;24025;48.138;11.428;2024-03-08T05:26:32;95159.72;;;0.47;98.17
38225;BME280;24025;48.138;11.428;2024-03-08T05:29:04;95154.28;;;0.35;97.92
38225;BME280;24025;48.138;11.428;2024-03-08T05:31:49;95149.97;;;0.39;97.31
38225;BME280;24025;48.138;11.428;2024-03-08T05:34:22;95154.59;;;0.34;96.87
38225;BME280;24025;48.138;11.428;2024-03-08T05:36:54;95151.22;;;0.50;96.33
38225;BME280;24025;48.138;11.428;2024-03-08T05:39:26;95149.97;;;0.31;96.34
38225;BME280;24025;48.138;11.428;2024-03-08T05:41:58;95148.13;;;0.31;97.29
38225;BME280;24025;48.138;11.428;2024-03-08T05:44:30;95151.66;;;0.35;97.03
38225;BME280;24025;48.138;11.428;2024-03-08T05:47:02;95153.06;;;0.41;96.24
38225;BME280;24025;48.138;11.428;2024-03-08T05:49:33;95149.22;;;0.47;95.96
38225;BME280;24025;48.138;11.428;2024-03-08T05:52:05;95143.50;;;0.37;96.43
38225;BME280;24025;48.138;11.428;2024-03-08T05:54:37;95143.81;;;0.52;96.26
38225;BME280;24025;48.138;11.428;2024-03-08T05:57:08;95151.69;;;0.52;95.89
38225;BME280;24025;48.138;11.428;2024-03-08T05:59:40;95151.38;;;0.45;96.17
38225;BME280;24025;48.138;11.428;2024-03-08T06:02:12;95148.59;;;0.59;95.85
38225;BME280;24025;48.138;11.428;2024-03-08T06:04:44;95149.06;;;0.61;96.84
38225;BME280;24025;48.138;11.428;2024-03-08T06:07:15;95149.56;;;0.72;95.76
38225;BME280;24025;48.138;11.428;2024-03-08T06:09:49;95142.47;;;0.81;95.83
38225;BME280;24025;48.138;11.428;2024-03-08T06:12:20;95145.84;;;0.64;95.56
38225;BME280;24025;48.138;11.428;2024-03-08T06:14:52;95136.91;;;0.82;95.48
38225;BME280;24025;48.138;11.428;2024-03-08T06:17:24;95138.91;;;0.85;93.68
38225;BME280;24025;48.138;11.428;2024-03-08T06:19:57;95138.56;;;1.04;93.94
38225;BME280;24025;48.138;11.428;2024-03-08T06:22:28;95146.59;;;1.17;92.90
38225;BME280;24025;48.138;11.428;2024-03-08T06:25:01;95142.09;;;1.26;92.88
38225;BME280;24025;48.138;11.428;2024-03-08T06:27:33;95144.72;;;1.26;93.05
38225;BME280;24025;48.138;11.428;2024-03-08T06:30:06;95146.28;;;1.18;93.09
38225;BME280;24025;48.138;11.428;2024-03-08T06:32:38;95147.53;;;1.12;92.43
38225;BME280;24025;48.138;11.428;2024-03-08T06:35:10;95140.41;;;1.21;92.45
38225;BME280;24025;48.138;11.428;2024-03-08T06:37:42;95142.72;;;1.05;91.87
38225;BME280;24025;48.138;11.428;2024-03-08T06:40:15;95143.81;;;1.13;91.57
38225;BME280;24025;48.138;11.428;2024-03-08T06:42:47;95147.97;;;1.05;92.03
38225;BME280;24025;48.138;11.428;2024-03-08T06:45:18;95143.03;;;1.12;91.55
38225;BME280;24025;48.138;11.428;2024-03-08T06:47:52;95144.47;;;0.93;91.94
38225;BME280;24025;48.138;11.428;2024-03-08T06:50:25;95136.88;;;1.08;92.58
38225;BME280;24025;48.138;11.428;2024-03-08T06:52:57;95143.47;;;1.32;91.21
38225;BME280;24025;48.138;11.428;2024-03-08T06:55:28;95145.63;;;1.38;91.03
38225;BME280;24025;48.138;11.428;2024-03-08T06:58:00;95149.91;;;1.60;90.43
38225;BME280;24025;48.138;11.428;2024-03-08T07:00:32;95141.56;;;1.58;88.85
38225;BME280;24025;48.138;11.428;2024-03-08T07:03:07;95151.19;;;1.46;89.93
38225;BME280;24025;48.138;11.428;2024-03-08T07:05:39;95150.97;;;1.68;89.05
38225;BME280;24025;48.138;11.428;2024-03-08T07:08:11;95138.66;;;1.51;88.29
38225;BME280;24025;48.138;11.428;2024-03-08T07:10:45;95139.59;;;1.38;89.92
38225;BME280;24025;48.138;11.428;2024-03-08T07:13:17;95134.63;;;1.54;88.33
38225;BME280;24025;48.138;11.428;2024-03-08T07:15:48;95133.09;;;1.53;90.61
38225;BME280;24025;48.138;11.428;2024-03-08T07:18:20;95140.06;;;1.31;89.34
38225;BME280;24025;48.138;11.428;2024-03-08T07:20:53;95136.03;;;1.51;89.96
38225;BME280;24025;48.138;11.428;2024-03-08T07:23:25;95136.09;;;1.72;88.53
38225;BME280;24025;48.138;11.428;2024-03-08T07:26:16;95131.97;;;1.62;88.70
38225;BME280;24025;48.138;11.428;2024-03-08T07:28:48;95135.34;;;1.72;88.47
38225;BME280;24025;48.138;11.428;2024-03-08T07:31:19;95129.97;;;1.97;87.54
38225;BME280;24025;48.138;11.428;2024-03-08T07:33:57;95129.41;;;1.83;87.47
38225;BME280;24025;48.138;11.428;2024-03-08T07:36:30;95128.81;;;1.78;88.43
38225;BME280;24025;48.138;11.428;2024-03-08T07:39:02;95126.78;;;1.83;87.82
38225;BME280;24025;48.138;11.428;2024-03-08T07:41:38;95129.03;;;1.64;88.52
38225;BME280;24025;48.138;11.428;2024-03-08T07:44:11;95124.63;;;1.77;88.62
38225;BME280;24025;48.138;11.428;2024-03-08T07:46:45;95125.19;;;1.61;88.84
38225;BME280;24025;48.138;11.428;2024-03-08T07:49:17;95128.50;;;1.79;89.19
38225;BME280;24025;48.138;11.428;2024-03-08T07:51:49;95116.06;;;1.97;87.30
38225;BME280;24025;48.138;11.428;2024-03-08T07:54:20;95124.19;;;2.13;87.50
38225;BME280;24025;48.138;11.428;2024-03-08T07:56:52;95114.66;;;1.99;87.55
38225;BME280;24025;48.138;11.428;2024-03-08T07:59:24;95117.72;;;2.02;86.92
38225;BME280;24025;48.138;11.428;2024-03-08T08:01:55;95120.63;;;2.09;87.59
38225;BME280;24025;48.138;11.428;2024-03-08T08:04:27;95112.16;;;2.33;87.01
38225;BME280;24025;48.138;11.428;2024-03-08T08:06:59;95114.47;;;2.34;86.99
38225;BME280;24025;48.138;11.428;2024-03-08T08:09:30;95121.78;;;2.49;85.47
38225;BME280;24025;48.138;11.428;2024-03-08T08:12:06;95112.31;;;2.57;85.14
38225;BME280;24025;48.138;11.428;2024-03-08T08:14:38;95108.75;;;2.53;85.60
38225;BME280;24025;48.138;11.428;2024-03-08T08:17:10;95108.31;;;2.72;84.62
38225;BME280;24025;48.138;11.428;2024-03-08T08:19:43;95105.28;;;2.82;84.92
38225;BME280;24025;48.138;11.428;2024-03-08T08:22:15;95110.41;;;2.78;84.14
38225;BME280;24025;48.138;11.428;2024-03-08T08:24:46;95104.34;;;2.99;83.43
38225;BME280;24025;48.138;11.428;2024-03-08T08:27:18;95105.09;;;2.87;82.53
38225;BME280;24025;48.138;11.428;2024-03-08T08:29:49;95103.50;;;3.07;81.92
38225;BME280;24025;48.138;11.428;2024-03-08T08:32:21;95105.72;;;3.17;82.03
38225;BME280;24025;48.138;11.428;2024-03-08T08:34:53;95099.63;;;3.25;82.20
38225;BME280;24025;48.138;11.428;2024-03-08T08:37:26;95096.09;;;3.21;81.33
38225;BME280;24025;48.138;11.428;2024-03-08T08:39:58;95091.94;;;3.20;81.75
38225;BME280;24025;48.138;11.428;2024-03-08T08:42:29;95089.78;;;3.01;83.12
38225;BME280;24025;48.138;11.428;2024-03-08T08:45:01;95083.72;;;3.34;81.29
38225;BME280;24025;48.138;11.428;2024-03-08T08:47:45;95084.31;;;3.64;80.62
38225;BME280;24025;48.138;11.428;2024-03-08T08:50:18;95077.50;;;3.87;79.95
38225;BME280;24025;48.138;11.428;2024-03-08T08:52:55;95076.66;;;4.08;79.37
38225;BME280;24025;48.138;11.428;2024-03-08T08:55:27;95077.81;;;4.22;77.71
38225;BME280;24025;48.138;11.428;2024-03-08T08:57:58;95071.00;;;4.34;77.21
38225;BME280;24025;48.138;11.428;2024-03-08T09:00:30;95078.06;;;3.81;79.14
38225;BME280;24025;48.138;11.428;2024-03-08T09:03:04;95072.00;;;3.68;79.56
38225;BME280;24025;48.138;11.428;2024-03-08T09:05:38;95068.25;;;4.06;78.63
38225;BME280;24025;48.138;11.428;2024-03-08T09:08:10;95065.38;;;4.23;77.68
38225;BME280;24025;48.138;11.428;2024-03-08T09:10:42;95060.25;;;4.02;77.86
38225;BME280;24025;48.138;11.428;2024-03-08T09:13:14;95053.44;;;4.13;77.33
38225;BME280;24025;48.138;11.428;2024-03-08T09:16:02;95057.16;;;4.12;78.02
38225;BME280;24025;48.138;11.428;2024-03-08T09:18:34;95050.13;;;4.16;77.28
38225;BME280;24025;48.138;11.428;2024-03-08T09:21:06;95045.84;;;4.12;79.00
38225;BME280;24025;48.138;11.428;2024-03-08T09:23:41;95044.75;;;4.25;77.63
38225;BME280;24025;48.138;11.428;2024-03-08T09:26:15;95040.31;;;4.29;78.14
38225;BME280;24025;48.138;11.428;2024-03-08T09:28:59;95043.41;;;4.19;77.58
38225;BME280;24025;48.138;11.428;2024-03-08T09:31:31;95029.03;;;4.16;78.54
38225;BME280;24025;48.138;11.428;2024-03-08T09:34:02;95038.44;;;4.42;77.70
38225;BME280;24025;48.138;11.428;2024-03-08T09:36:34;95032.91;;;4.47;78.53
38225;BME280;24025;48.138;11.428;2024-03-08T09:39:06;95025.06;;;4.50;78.45
38225;BME280;24025;48.138;11.428;2024-03-08T09:41:38;95024.03;;;4.67;76.30
38225;BME280;24025;48.138;11.428;2024-03-08T09:44:10;95028.69;;;4.86;75.89
38225;BME280;24025;48.138;11.428;2024-03-08T09:46:42;95024.50;;;4.85;75.09
38225;BME280;24025;48.138;11.428;2024-03-08T09:49:14;95017.16;;;5.06;75.10
38225;BME280;24025;48.138;11.428;2024-03-08T09:51:45;95018.00;;;5.26;75.52
38225;BME280;24025;48.138;11.428;2024-03-08T09:54:18;95015.38;;;5.42;74.80
38225;BME280;24025;48.138;11.428;2024-03-08T09:56:54;95016.81;;;5.71;73.01
38225;BME280;24025;48.138;11.428;2024-03-08T09:59:26;95015.63;;;5.84;72.02
38225;BME280;24025;48.138;11.428;2024-03-08T10:01:58;95013.22;;;5.95;71.83
38225;BME280;24025;48.138;11.428;2024-03-08T10:04:31;95010.03;;;6.05;71.79
38225;BME280;24025;48.138;11.428;2024-03-08T10:07:04;95012.50;;;6.14;69.97
38225;BME280;24025;48.138;11.428;2024-03-08T10:09:36;95016.91;;;6.25;69.67
38225;BME280;24025;48.138;11.428;2024-03-08T10:12:08;95003.66;;;6.25;69.02
38225;BME280;24025;48.138;11.428;2024-03-08T10:14:41;95009.00;;;6.45;69.53
38225;BME280;24025;48.138;11.428;2024-03-08T10:17:13;95005.13;;;6.42;69.26
38225;BME280;24025;48.138;11.428;2024-03-08T10:19:49;95004.09;;;6.66;69.58
38225;BME280;24025;48.138;11.428;2024-03-08T10:22:22;94994.09;;;6.79;68.03
38225;BME280;24025;48.138;11.428;2024-03-08T10:24:54;94992.56;;;6.78;67.57
38225;BME280;24025;48.138;11.428;2024-03-08T10:27:26;94991.78;;;6.97;68.28
38225;BME280;24025;48.138;11.428;2024-03-08T10:29:58;94986.91;;;7.22;66.64
38225;BME280;24025;48.138;11.428;2024-03-08T10:32:33;94984.16;;;7.37;67.09
38225;BME280;24025;48.138;11.428;2024-03-08T10:35:04;94983.81;;;7.16;66.61
38225;BME280;24025;48.138;11.428;2024-03-08T10:37:44;94986.56;;;7.23;66.82
38225;BME280;24025;48.138;11.428;2024-03-08T10:40:18;94991.06;;;7.42;65.15
38225;BME280;24025;48.138;11.428;2024-03-08T10:42:51;94981.91;;;7.62;65.80
38225;BME280;24025;48.138;11.428;2024-03-08T10:48:14;94966.13;;;7.73;64.84
38225;BME280;24025;48.138;11.428;2024-03-08T10:50:52;94964.38;;;7.84;65.39
38225;BME280;24025;48.138;11.428;2024-03-08T10:53:27;94965.63;;;7.90;64.42
38225;BME280;24025;48.138;11.428;2024-03-08T10:55:59;94967.09;;;7.88;64.42
38225;BME280;24025;48.138;11.428;2024-03-08T10:58:31;94963.88;;;8.32;64.77
38225;BME280;24025;48.138;11.428;2024-03-08T11:01:03;94958.88;;;8.27;62.95
38225;BME280;24025;48.138;11.428;2024-03-08T11:06:29;94956.94;;;8.23;63.99
38225;BME280;24025;48.138;11.428;2024-03-08T11:09:01;94954.84;;;8.70;60.77
38225;BME280;24025;48.138;11.428;2024-03-08T11:11:33;94938.59;;;8.75;61.16
38225;BME280;24025;48.138;11.428;2024-03-08T11:14:50;94934.53;;;8.51;61.08
38225;BME280;24025;48.138;11.428;2024-03-08T11:22:51;94936.22;;;9.07;59.67
38225;BME280;24025;48.138;11.428;2024-03-08T11:25:37;94928.91;;;9.41;58.47
38225;BME280;24025;48.138;11.428;2024-03-08T11:28:15;94925.63;;;9.58;58.85
38225;BME280;24025;48.138;11.428;2024-03-08T11:33:32;94921.13;;;9.70;57.44
38225;BME280;24025;48.138;11.428;2024-03-08T11:36:13;94917.91;;;9.43;57.40
38225;BME280;24025;48.138;11.428;2024-03-08T11:38:48;94915.56;;;9.92;57.33
38225;BME280;24025;48.138;11.428;2024-03-08T11:41:22;94914.50;;;10.11;57.25
38225;BME280;24025;48.138;11.428;2024-03-08T11:44:04;94912.31;;;10.28;55.83
38225;BME280;24025;48.138;11.428;2024-03-08T11:46:37;94918.38;;;10.25;55.66
38225;BME280;24025;48.138;11.428;2024-03-08T11:49:11;94911.28;;;10.54;56.27
38225;BME280;24025;48.138;11.428;2024-03-08T11:51:43;94905.25;;;10.85;54.53
38225;BME280;24025;48.138;11.428;2024-03-08T11:54:14;94902.91;;;10.52;52.48
38225;BME280;24025;48.138;11.428;2024-03-08T11:56:46;94904.09;;;10.83;54.69
38225;BME280;24025;48.138;11.428;2024-03-08T11:59:19;94902.97;;;10.84;55.35
38225;BME280;24025;48.138;11.428;2024-03-08T12:02:01;94898.00;;;10.82;52.93
38225;BME280;24025;48.138;11.428;2024-03-08T12:04:34;94880.13;;;11.50;52.60
38225;BME280;24025;48.138;11.428;2024-03-08T12:07:09;94880.06;;;11.64;52.95
38225;BME280;24025;48.138;11.428;2024-03-08T12:09:43;94873.19;;;11.78;51.73
38225;BME280;24025;48.138;11.428;2024-03-08T12:12:19;94868.63;;;11.64;52.05
38225;BME280;24025;48.138;11.428;2024-03-08T12:14:50;94861.03;;;11.59;50.89
38225;BME280;24025;48.138;11.428;2024-03-08T12:17:23;94866.63;;;12.07;49.65
38225;BME280;24025;48.138;11.428;2024-03-08T12:19:55;94860.41;;;12.39;49.40
38225;BME280;24025;48.138;11.428;2024-03-08T12:22:27;94854.59;;;12.55;48.83
38225;BME280;24025;48.138;11.428;2024-03-08T12:25:06;94853.56;;;12.31;49.23
38225;BME280;24025;48.138;11.428;2024-03-08T12:27:42;94851.63;;;12.38;48.62
38225;BME280;24025;48.138;11.428;2024-03-08T12:35:21;94842.25;;;12.71;48.49
38225;BME280;24025;48.138;11.428;2024-03-08T12:37:55;94840.91;;;12.42;47.37
38225;BME280;24025;48.138;11.428;2024-03-08T12:40:28;94835.34;;;12.77;48.92
38225;BME280;24025;48.138;11.428;2024-03-08T12:43:01;94829.91;;;12.29;48.04
38225;BME280;24025;48.138;11.428;2024-03-08T12:45:34;94836.53;;;12.73;47.34
38225;BME280;24025;48.138;11.428;2024-03-08T12:48:12;94826.25;;;13.20;47.88
38225;BME280;24025;48.138;11.428;2024-03-08T12:50:47;94827.38;;;13.60;45.68
38225;BME280;24025;48.138;11.428;2024-03-08T12:53:19;94823.84;;;13.32;45.12
38225;BME280;24025;48.138;11.428;2024-03-08T12:55:51;94817.34;;;13.30;45.05
38225;BME280;24025;48.138;11.428;2024-03-08T12:58:24;94815.66;;;13.84;45.69
38225;BME280;24025;48.138;11.428;2024-03-08T13:00:57;94808.69;;;14.21;44.90
38225;BME280;24025;48.138;11.428;2024-03-08T13:03:29;94808.78;;;14.44;44.23
38225;BME280;24025;48.138;11.428;2024-03-08T13:06:00;94806.75;;;15.06;42.41
38225;BME280;24025;48.138;11.428;2024-03-08T13:08:32;94796.88;;;14.49;41.94
38225;BME280;24025;48.138;11.428;2024-03-08T13:11:07;94796.84;;;15.70;40.04
38225;BME280;24025;48.138;11.428;2024-03-08T13:13:40;94792.03;;;18.89;35.45
38225;BME280;24025;48.138;11.428;2024-03-08T13:16:12;94779.81;;;21.62;33.67
38225;BME280;24025;48.138;11.428;2024-03-08T13:18:46;94774.00;;;23.65;28.80
38225;BME280;24025;48.138;11.428;2024-03-08T13:21:25;94773.72;;;25.92;25.33
38225;BME280;24025;48.138;11.428;2024-03-08T13:23:56;94768.94;;;25.87;24.37
38225;BME280;24025;48.138;11.428;2024-03-08T13:26:30;94761.81;;;26.47;24.23
38225;BME280;24025;48.138;11.428;2024-03-08T13:29:05;94759.59;;;27.69;22.35
38225;BME280;24025;48.138;11.428;2024-03-08T13:31:38;94762.44;;;28.13;21.34
38225;BME280;24025;48.138;11.428;2024-03-08T13:34:11;94745.81;;;29.70;19.54
38225;BME280;24025;48.138;11.428;2024-03-08T13:36:43;94746.50;;;30.59;19.12
38225;BME280;24025;48.138;11.428;2024-03-08T13:39:16;94742.53;;;30.54;18.89
38225;BME280;24025;48.138;11.428;2024-03-08T13:41:47;94746.66;;;27.21;20.66
38225;BME280;24025;48.138;11.428;2024-03-08T13:44:19;94746.38;;;29.46;19.82
38225;BME280;24025;48.138;11.428;2024-03-08T13:46:51;94742.47;;;27.96;20.19